Time;durP1;ratioP1;P1;durP2;ratioP2;P2;SDS_P1;SDS_P2;PMS_P1;PMS_P2;Temp;Humidity;BMP_temperature;BMP_pressure;BME280_temperature;BME280_humidity;BME280_pressure;Samples;Min_cycle;Max_cycle;Signal;HPM_P1;HPM_P2
2022/04/15 00:00:32;;;;;;;16.73;9.87;;;9.90;99.90;;;;;;5035389;28;20190;-86
2022/04/15 00:02:58;;;;;;;21.60;10.63;;;9.80;99.90;;;;;;5017311;28;20228;-85
2022/04/15 00:05:36;;;;;;;19.00;10.30;;;9.70;99.90;;;;;;5033980;28;20222;-86
2022/04/15 00:08:03;;;;;;;16.93;10.33;;;9.60;99.90;;;;;;5032398;28;20234;-86
2022/04/15 00:10:34;;;;;;;17.43;10.40;;;9.60;99.90;;;;;;5034333;28;20242;-84
2022/04/15 00:13:03;;;;;;;19.50;11.07;;;9.50;99.90;;;;;;5028665;28;20215;-85
2022/04/15 00:15:33;;;;;;;18.70;11.13;;;9.50;99.90;;;;;;5023992;28;20199;-86
2022/04/15 00:18:00;;;;;;;19.50;11.23;;;9.50;99.90;;;;;;5023455;28;20226;-85
2022/04/15 00:20:27;;;;;;;24.63;12.00;;;9.40;99.90;;;;;;5031047;28;20278;-85
2022/04/15 00:22:54;;;;;;;16.17;10.77;;;9.40;99.90;;;;;;5015048;28;20214;-86
2022/04/15 00:25:21;;;;;;;24.17;11.93;;;9.30;99.90;;;;;;5029977;28;20257;-86
2022/04/15 00:27:50;;;;;;;22.80;11.63;;;9.30;99.90;;;;;;5028481;28;20230;-84
2022/04/15 00:30:17;;;;;;;20.43;12.13;;;9.20;99.90;;;;;;5028496;28;20233;-85
2022/04/15 00:32:44;;;;;;;22.43;12.50;;;9.20;99.90;;;;;;5025116;28;20211;-84
2022/04/15 00:35:12;;;;;;;20.50;12.30;;;9.10;99.90;;;;;;5019311;28;20274;-85
2022/04/15 00:37:39;;;;;;;21.67;11.93;;;9.10;99.90;;;;;;4999562;28;20231;-84
2022/04/15 00:40:09;;;;;;;21.43;12.50;;;9.00;99.90;;;;;;4999221;28;20290;-84
2022/04/15 00:42:37;;;;;;;23.17;12.53;;;9.00;99.90;;;;;;5005675;28;20238;-84
2022/04/15 00:45:09;;;;;;;22.97;13.13;;;8.90;99.90;;;;;;5013161;28;20230;-84
2022/04/15 00:47:47;;;;;;;25.37;13.57;;;8.90;99.90;;;;;;5010991;28;20246;-84
2022/04/15 00:50:15;;;;;;;23.57;14.03;;;8.80;99.90;;;;;;5008125;28;20874;-83
2022/04/15 00:52:44;;;;;;;24.60;13.77;;;8.80;99.90;;;;;;5017580;28;20202;-84
2022/04/15 00:55:13;;;;;;;27.33;13.23;;;8.80;99.90;;;;;;5017218;28;20221;-85
2022/04/15 00:57:41;;;;;;;27.83;14.03;;;8.70;99.90;;;;;;5026873;28;20809;-84
2022/04/15 01:00:11;;;;;;;21.10;14.27;;;8.70;99.90;;;;;;5017847;28;20294;-85
2022/04/15 01:02:39;;;;;;;31.00;15.03;;;8.70;99.90;;;;;;5009215;28;20206;-86
2022/04/15 01:05:09;;;;;;;26.03;14.90;;;8.60;99.90;;;;;;5020890;28;20225;-84
2022/04/15 01:07:38;;;;;;;30.37;14.73;;;8.60;99.90;;;;;;4996092;28;20241;-84
2022/04/15 01:10:07;;;;;;;27.63;14.23;;;8.60;99.90;;;;;;5012356;28;20206;-84
2022/04/15 01:12:37;;;;;;;29.03;14.80;;;8.50;99.90;;;;;;5012423;28;20222;-84
2022/04/15 01:15:06;;;;;;;23.37;14.07;;;8.50;99.90;;;;;;5014426;28;20247;-85
2022/04/15 01:17:35;;;;;;;23.03;14.57;;;8.50;99.90;;;;;;5010909;28;20230;-84
2022/04/15 01:20:03;;;;;;;28.13;14.10;;;8.40;99.90;;;;;;5009607;28;20541;-83
2022/04/15 01:22:36;;;;;;;24.47;15.00;;;8.40;99.90;;;;;;5011671;28;20207;-82
2022/04/15 01:25:06;;;;;;;27.07;15.77;;;8.30;99.90;;;;;;4995350;28;20235;-83
2022/04/15 01:27:36;;;;;;;30.37;15.70;;;8.30;99.90;;;;;;5004651;28;20309;-83
2022/04/15 01:30:03;;;;;;;26.53;16.30;;;8.20;99.90;;;;;;5010404;28;20210;-83
2022/04/15 01:32:30;;;;;;;27.17;15.70;;;8.20;99.90;;;;;;5003552;28;20217;-84
2022/04/15 01:34:57;;;;;;;26.67;16.40;;;8.30;99.90;;;;;;5009360;28;20211;-84
2022/04/15 01:37:24;;;;;;;30.40;16.73;;;8.20;99.90;;;;;;5012259;28;20273;-84
2022/04/15 01:39:52;;;;;;;29.50;16.07;;;8.20;99.90;;;;;;4994968;28;20210;-84
2022/04/15 01:42:20;;;;;;;35.63;16.23;;;8.20;99.90;;;;;;4995143;28;20209;-83
2022/04/15 01:44:47;;;;;;;33.97;16.33;;;8.20;99.90;;;;;;4996733;28;20290;-83
2022/04/15 01:47:16;;;;;;;34.60;18.40;;;8.20;99.90;;;;;;5011634;28;20222;-82
2022/04/15 01:49:43;;;;;;;33.67;18.17;;;8.20;99.90;;;;;;5006883;28;20585;-82
2022/04/15 01:52:10;;;;;;;34.13;16.83;;;8.10;99.90;;;;;;4992372;28;20309;-83
2022/04/15 01:54:37;;;;;;;30.57;16.47;;;8.10;99.90;;;;;;5011639;28;20592;-83
2022/04/15 01:57:05;;;;;;;29.70;17.13;;;8.10;99.90;;;;;;5000900;28;20581;-83
2022/04/15 01:59:33;;;;;;;30.50;16.83;;;8.00;99.90;;;;;;5011263;28;20333;-84
2022/04/15 02:02:00;;;;;;;28.90;15.57;;;8.00;99.90;;;;;;5000582;28;20213;-84
2022/04/15 02:04:27;;;;;;;32.97;17.07;;;8.00;99.90;;;;;;5010452;28;20237;-83
2022/04/15 02:06:55;;;;;;;32.67;17.63;;;7.70;99.90;;;;;;5011013;28;20202;-84
2022/04/15 02:09:22;;;;;;;30.63;17.60;;;7.90;99.90;;;;;;4991705;28;20234;-84
2022/04/15 02:11:49;;;;;;;33.90;17.90;;;7.80;99.90;;;;;;5005121;28;20213;-84
2022/04/15 02:14:17;;;;;;;33.37;17.87;;;7.80;99.90;;;;;;5000037;28;20210;-84
2022/04/15 02:16:45;;;;;;;34.23;17.73;;;7.80;99.90;;;;;;4997212;28;20210;-84
2022/04/15 02:19:12;;;;;;;32.40;16.33;;;7.70;99.90;;;;;;5000330;28;20694;-83
2022/04/15 02:21:39;;;;;;;34.67;17.50;;;8.10;99.90;;;;;;5009312;28;20210;-84
2022/04/15 02:24:07;;;;;;;34.17;19.03;;;7.70;99.90;;;;;;4999638;28;20214;-83
2022/04/15 02:26:34;;;;;;;36.07;18.77;;;7.70;99.90;;;;;;5008917;28;20217;-83
2022/04/15 02:29:01;;;;;;;34.67;17.77;;;7.70;99.90;;;;;;5010313;28;20235;-84
2022/04/15 02:31:28;;;;;;;35.23;18.57;;;7.70;99.90;;;;;;5008722;28;20226;-83
2022/04/15 02:33:56;;;;;;;38.03;19.20;;;7.90;99.90;;;;;;5008413;28;20289;-83
2022/04/15 02:36:23;;;;;;;42.43;19.87;;;7.80;99.90;;;;;;5014220;28;20211;-84
2022/04/15 02:38:50;;;;;;;38.13;19.43;;;7.50;99.90;;;;;;5002334;28;20484;-83
2022/04/15 02:41:19;;;;;;;39.87;21.27;;;7.80;99.90;;;;;;4998032;28;20269;-85
2022/04/15 02:43:46;;;;;;;41.70;20.53;;;7.50;99.90;;;;;;5005556;28;20305;-85
2022/04/15 02:46:14;;;;;;;40.73;21.47;;;7.60;99.90;;;;;;5013778;28;20725;-84
2022/04/15 02:48:41;;;;;;;40.77;21.43;;;7.50;99.90;;;;;;5003262;28;20301;-84
2022/04/15 02:51:10;;;;;;;39.17;19.57;;;7.50;99.90;;;;;;5012117;28;20233;-84
2022/04/15 02:53:37;;;;;;;37.57;20.53;;;7.40;99.90;;;;;;5022370;28;20241;-84
2022/04/15 02:56:04;;;;;;;38.03;19.43;;;7.40;99.90;;;;;;5017206;28;20243;-84
2022/04/15 02:58:31;;;;;;;38.57;18.97;;;7.40;99.90;;;;;;5014525;28;20245;-83
2022/04/15 03:00:58;;;;;;;40.13;19.13;;;7.40;99.90;;;;;;5004629;28;20298;-85
2022/04/15 03:03:25;;;;;;;33.87;18.63;;;7.30;99.90;;;;;;5005920;28;20210;-84
2022/04/15 03:05:52;;;;;;;32.07;19.30;;;7.30;99.90;;;;;;5012182;28;20241;-84
2022/04/15 03:08:20;;;;;;;37.47;18.80;;;7.30;99.90;;;;;;5007246;28;20341;-85
2022/04/15 03:10:47;;;;;;;31.93;18.00;;;7.30;99.90;;;;;;4996417;28;20206;-82
2022/04/15 03:13:15;;;;;;;37.33;19.30;;;7.30;99.90;;;;;;5026404;28;20220;-84
2022/04/15 03:15:42;;;;;;;35.63;19.87;;;7.30;99.90;;;;;;5004756;28;20250;-84
2022/04/15 03:18:09;;;;;;;39.53;19.77;;;7.30;99.90;;;;;;5014713;28;20601;-83
2022/04/15 03:20:36;;;;;;;37.40;19.37;;;7.20;99.90;;;;;;5011075;28;20298;-83
2022/04/15 03:23:03;;;;;;;36.30;20.10;;;7.20;99.90;;;;;;5016644;28;20217;-83
2022/04/15 03:25:31;;;;;;;42.47;21.00;;;7.20;99.90;;;;;;5013836;28;20214;-83
2022/04/15 03:28:00;;;;;;;38.97;20.93;;;7.20;99.90;;;;;;5020748;28;20242;-84
2022/04/15 03:30:31;;;;;;;43.03;20.43;;;7.40;99.90;;;;;;5013177;28;20210;-83
2022/04/15 03:32:58;;;;;;;44.13;22.30;;;7.10;99.90;;;;;;5013354;28;20203;-83
2022/04/15 03:35:25;;;;;;;36.13;20.43;;;7.10;99.90;;;;;;5016704;28;20210;-84
2022/04/15 03:37:53;;;;;;;52.47;21.50;;;7.00;99.90;;;;;;5034411;28;20270;-84
2022/04/15 03:40:20;;;;;;;41.73;19.53;;;7.10;99.90;;;;;;5015224;28;20190;-83
2022/04/15 03:42:50;;;;;;;50.47;22.13;;;7.00;99.90;;;;;;5013299;28;20682;-83
2022/04/15 03:45:19;;;;;;;44.70;20.97;;;7.00;99.90;;;;;;5012542;28;20820;-83
2022/04/15 03:47:47;;;;;;;38.87;21.00;;;7.00;99.90;;;;;;5015433;28;20295;-85
2022/04/15 03:50:14;;;;;;;39.73;20.63;;;7.30;99.90;;;;;;5008933;28;20239;-83
2022/04/15 03:52:45;;;;;;;36.23;18.77;;;6.90;99.90;;;;;;5012653;28;20214;-85
2022/04/15 03:55:13;;;;;;;41.87;21.87;;;6.90;99.90;;;;;;5009073;28;20218;-83
2022/04/15 03:57:41;;;;;;;40.03;20.50;;;6.90;99.90;;;;;;5012301;28;20222;-84
2022/04/15 04:00:11;;;;;;;46.73;21.43;;;6.90;99.90;;;;;;5008508;28;20209;-84
2022/04/15 04:02:38;;;;;;;50.40;22.20;;;6.90;99.90;;;;;;4993227;28;20221;-82
2022/04/15 04:05:08;;;;;;;45.70;22.33;;;6.90;99.90;;;;;;5015395;28;20223;-84
2022/04/15 04:07:35;;;;;;;41.27;20.77;;;6.90;99.90;;;;;;5024368;28;20264;-84
2022/04/15 04:10:02;;;;;;;41.57;21.30;;;6.90;99.90;;;;;;5019687;28;20210;-83
2022/04/15 04:12:33;;;;;;;44.90;20.30;;;7.00;99.90;;;;;;4998554;28;20289;-83
2022/04/15 04:15:00;;;;;;;43.23;21.13;;;6.90;99.90;;;;;;5003085;28;20202;-84
2022/04/15 04:17:28;;;;;;;45.30;21.57;;;6.80;99.90;;;;;;5009189;28;20593;-84
2022/04/15 04:19:55;;;;;;;54.00;24.03;;;6.80;99.90;;;;;;4995535;28;20214;-85
2022/04/15 04:22:22;;;;;;;51.47;24.33;;;7.30;99.90;;;;;;5017692;28;20232;-84
2022/04/15 04:24:49;;;;;;;51.87;25.93;;;6.70;99.90;;;;;;5010887;28;20237;-84
2022/04/15 04:27:17;;;;;;;56.70;26.00;;;6.70;99.90;;;;;;5028732;28;20229;-84
2022/04/15 04:29:44;;;;;;;46.50;24.47;;;6.70;99.90;;;;;;5014556;28;20221;-84
2022/04/15 04:32:11;;;;;;;52.17;23.67;;;6.70;99.90;;;;;;5011390;28;20221;-83
2022/04/15 04:34:40;;;;;;;54.90;24.50;;;6.70;99.90;;;;;;5012229;28;20208;-84
2022/04/15 04:37:08;;;;;;;53.23;25.87;;;6.70;99.90;;;;;;5010022;28;20203;-84
2022/04/15 04:39:35;;;;;;;46.70;25.13;;;6.70;99.90;;;;;;5010653;28;20229;-85
2022/04/15 04:42:03;;;;;;;51.43;25.27;;;6.70;99.90;;;;;;5015844;28;20229;-88
2022/04/15 04:44:31;;;;;;;57.03;25.80;;;6.80;99.90;;;;;;5030707;28;20233;-86
2022/04/15 04:47:00;;;;;;;60.40;25.97;;;6.80;99.90;;;;;;5013704;28;20283;-87
2022/04/15 04:49:27;;;;;;;52.57;24.30;;;6.90;99.90;;;;;;5014475;28;20233;-88
2022/04/15 04:51:56;;;;;;;48.40;24.47;;;7.20;99.90;;;;;;5015462;28;20198;-88
2022/04/15 04:54:24;;;;;;;56.70;26.70;;;7.10;99.90;;;;;;5032851;28;20194;-89
2022/04/15 04:56:51;;;;;;;59.87;25.37;;;;;;;;;;5014251;28;20210;-87
2022/04/15 04:59:18;;;;;;;55.27;26.20;;;;;;;;;;5033278;28;20249;-88
2022/04/15 05:01:46;;;;;;;51.07;24.40;;;;;;;;;;5034232;28;20221;-88
2022/04/15 05:04:14;;;;;;;49.13;25.33;;;7.70;99.90;;;;;;5017024;28;20205;-88
2022/04/15 05:06:44;;;;;;;59.70;25.63;;;7.90;99.90;;;;;;5016767;28;20202;-88
2022/04/15 05:09:13;;;;;;;53.33;24.53;;;8.00;99.90;;;;;;5016792;28;20210;-87
2022/04/15 05:11:40;;;;;;;47.63;23.23;;;;;;;;;;5034453;28;20210;-89
2022/04/15 05:14:08;;;;;;;45.83;24.00;;;8.20;99.90;;;;;;5034461;28;20190;-87
2022/04/15 05:16:35;;;;;;;41.63;22.50;;;;;;;;;;5017048;28;20212;-88
2022/04/15 05:19:02;;;;;;;37.33;22.57;;;8.80;99.90;;;;;;5033979;28;20258;-88
2022/04/15 05:21:30;;;;;;;32.37;17.97;;;7.70;99.90;;;;;;5033804;28;20217;-89
2022/04/15 05:23:57;;;;;;;39.30;20.33;;;;;;;;;;5012986;28;20198;-86
2022/04/15 05:26:26;;;;;;;37.40;19.73;;;8.50;99.90;;;;;;5006043;28;20229;-83
2022/04/15 05:28:53;;;;;;;35.13;20.93;;;8.60;99.90;;;;;;5006796;28;20258;-84
2022/04/15 05:31:20;;;;;;;36.80;20.70;;;8.90;99.90;;;;;;5004001;28;20203;-84
2022/04/15 05:33:47;;;;;;;31.40;19.43;;;8.70;99.90;;;;;;4999458;28;20294;-85
2022/04/15 05:36:14;;;;;;;27.93;17.83;;;8.70;99.90;;;;;;5011562;28;20886;-87
2022/04/15 05:38:40;;;;;;;34.47;19.07;;;8.70;99.90;;;;;;5012909;28;20226;-86
2022/04/15 05:41:07;;;;;;;33.27;20.13;;;8.60;99.90;;;;;;5012698;28;20233;-83
2022/04/15 05:43:37;;;;;;;36.13;19.70;;;8.70;99.90;;;;;;5012465;28;20210;-87
2022/04/15 05:46:04;;;;;;;30.73;18.40;;;8.70;99.90;;;;;;4993522;28;20245;-83
2022/04/15 05:48:31;;;;;;;37.20;20.73;;;8.70;99.90;;;;;;4994682;28;20238;-84
2022/04/15 05:50:58;;;;;;;33.23;20.50;;;8.70;99.90;;;;;;5018658;28;20220;-88
2022/04/15 05:53:25;;;;;;;35.93;20.33;;;8.70;99.90;;;;;;5018969;28;20206;-85
2022/04/15 05:55:52;;;;;;;31.67;19.00;;;8.80;99.90;;;;;;5013188;28;20828;-83
2022/04/15 05:58:19;;;;;;;33.57;20.50;;;8.80;99.90;;;;;;5013632;28;20305;-84
2022/04/15 06:00:48;;;;;;;32.00;19.43;;;8.80;99.90;;;;;;5014291;28;20194;-84
2022/04/15 06:03:15;;;;;;;33.87;19.07;;;9.10;99.90;;;;;;5009943;28;20240;-87
2022/04/15 06:05:43;;;;;;;30.80;18.97;;;8.90;99.90;;;;;;5023768;28;20260;-83
2022/04/15 06:08:10;;;;;;;28.70;17.67;;;8.90;99.90;;;;;;5008362;28;20315;-83
2022/04/15 06:10:37;;;;;;;28.13;16.13;;;9.00;99.90;;;;;;5022371;28;20293;-83
2022/04/15 06:13:09;;;;;;;25.43;16.03;;;9.00;99.90;;;;;;5003700;28;20304;-84
2022/04/15 06:15:41;;;;;;;25.47;16.13;;;9.00;99.90;;;;;;5022680;28;20217;-84
2022/04/15 06:18:09;;;;;;;40.23;20.77;;;9.00;99.90;;;;;;5002199;28;20237;-84
2022/04/15 06:20:36;;;;;;;28.60;16.83;;;9.10;99.90;;;;;;5005705;28;20272;-84
2022/04/15 06:23:03;;;;;;;29.67;15.73;;;9.10;99.90;;;;;;5011131;28;20232;-83
2022/04/15 06:25:30;;;;;;;29.90;16.63;;;9.10;99.90;;;;;;5014984;28;20228;-83
2022/04/15 06:27:57;;;;;;;19.73;13.40;;;9.20;99.90;;;;;;5000196;28;20226;-84
2022/04/15 06:30:25;;;;;;;15.73;11.07;;;9.30;99.90;;;;;;5000606;28;20309;-86
2022/04/15 06:32:53;;;;;;;15.40;11.77;;;9.50;99.90;;;;;;5001050;28;20221;-84
2022/04/15 06:35:21;;;;;;;20.10;13.43;;;9.80;99.90;;;;;;5017272;28;20213;-84
2022/04/15 06:37:49;;;;;;;19.90;12.30;;;10.00;99.90;;;;;;5002331;28;20241;-84
2022/04/15 06:40:16;;;;;;;18.10;12.27;;;10.20;99.90;;;;;;5000772;28;20206;-85
2022/04/15 06:42:43;;;;;;;16.03;11.57;;;10.30;99.90;;;;;;4994852;28;20289;-84
2022/04/15 06:45:13;;;;;;;15.10;11.20;;;10.40;99.90;;;;;;4994009;28;20210;-85
2022/04/15 06:47:40;;;;;;;15.90;11.83;;;10.30;99.90;;;;;;5012961;28;20705;-83
2022/04/15 06:50:08;;;;;;;18.77;12.43;;;10.50;99.90;;;;;;5011463;28;20225;-83
2022/04/15 06:52:36;;;;;;;17.43;12.40;;;10.60;99.90;;;;;;5009332;28;20669;-85
2022/04/15 06:55:04;;;;;;;19.87;12.97;;;10.80;99.90;;;;;;5023089;28;20207;-86
2022/04/15 06:57:31;;;;;;;17.53;12.83;;;11.20;99.90;;;;;;5019746;28;20628;-85
2022/04/15 06:59:59;;;;;;;18.87;12.80;;;11.20;99.90;;;;;;5010215;28;20246;-86
2022/04/15 07:02:27;;;;;;;17.60;12.60;;;11.40;99.90;;;;;;5020055;28;20211;-85
2022/04/15 07:04:53;;;;;;;17.17;12.40;;;11.50;99.90;;;;;;5004666;28;20227;-87
2022/04/15 07:07:21;;;;;;;21.07;12.90;;;11.60;99.90;;;;;;5009085;28;20289;-86
2022/04/15 07:09:50;;;;;;;10.57;8.53;;;11.60;99.90;;;;;;5024345;28;20251;-85
2022/04/15 07:12:18;;;;;;;14.80;11.83;;;11.70;99.90;;;;;;5004537;28;20231;-87
2022/04/15 07:14:45;;;;;;;16.23;9.97;;;11.60;99.90;;;;;;5014057;28;20599;-85
2022/04/15 07:17:12;;;;;;;11.57;9.07;;;11.50;99.90;;;;;;5017796;28;20252;-85
2022/04/15 07:19:39;;;;;;;12.20;9.20;;;11.50;99.90;;;;;;5012042;28;20317;-85
2022/04/15 07:22:06;;;;;;;12.30;8.10;;;11.50;99.90;;;;;;5013034;28;20297;-84
2022/04/15 07:24:33;;;;;;;12.93;8.30;;;11.60;99.90;;;;;;5004039;28;20704;-84
2022/04/15 07:27:03;;;;;;;11.13;7.93;;;11.70;99.90;;;;;;5008326;28;20549;-85
2022/04/15 07:29:30;;;;;;;8.63;7.67;;;11.90;99.90;;;;;;5015699;28;20247;-86
2022/04/15 07:31:57;;;;;;;12.80;8.03;;;12.10;99.90;;;;;;5007408;28;20880;-86
2022/04/15 07:34:26;;;;;;;9.20;6.80;;;12.20;99.90;;;;;;4999966;28;20213;-86
2022/04/15 07:36:59;;;;;;;9.43;6.83;;;12.10;99.90;;;;;;5010402;28;20216;-89
2022/04/15 07:39:26;;;;;;;7.83;6.63;;;12.10;99.90;;;;;;5011978;28;20229;-87
2022/04/15 07:41:54;;;;;;;9.77;6.43;;;12.10;99.90;;;;;;5002327;28;20525;-88
2022/04/15 07:44:23;;;;;;;9.37;6.43;;;12.00;99.90;;;;;;5004427;28;20609;-88
2022/04/15 07:46:50;;;;;;;8.93;5.73;;;11.80;99.90;;;;;;5007216;28;20252;-87
2022/04/15 07:49:17;;;;;;;9.17;6.90;;;11.90;99.90;;;;;;4996340;28;20650;-87
2022/04/15 07:51:49;;;;;;;7.37;5.70;;;11.90;99.90;;;;;;5004889;28;20665;-88
2022/04/15 07:54:16;;;;;;;8.00;5.00;;;12.10;99.90;;;;;;5007642;28;20195;-88
2022/04/15 07:56:44;;;;;;;5.30;3.50;;;13.30;99.90;;;;;;5017146;28;20666;-87
2022/04/15 07:59:11;;;;;;;2.83;2.40;;;15.00;99.90;;;;;;5017241;28;20265;-88
2022/04/15 08:01:39;;;;;;;5.13;3.13;;;16.80;99.90;;;;;;5007332;28;20232;-88
2022/04/15 08:04:06;;;;;;;4.87;3.03;;;17.80;99.90;;;;;;5004881;28;20223;-87
2022/04/15 08:06:33;;;;;;;5.23;2.10;;;17.20;99.90;;;;;;4999115;28;20233;-88
2022/04/15 08:09:01;;;;;;;5.70;2.47;;;16.50;99.90;;;;;;5010781;28;20230;-87
2022/04/15 08:11:29;;;;;;;3.47;2.50;;;17.60;99.90;;;;;;5012870;28;20205;-88
2022/04/15 08:13:57;;;;;;;4.70;2.43;;;16.00;99.90;;;;;;5017383;28;20216;-88
2022/04/15 08:16:25;;;;;;;4.60;2.53;;;15.60;99.90;;;;;;5018634;28;20277;-88
2022/04/15 08:18:55;;;;;;;3.97;3.03;;;14.90;99.90;;;;;;5017517;28;20218;-88
2022/04/15 08:21:22;;;;;;;4.40;2.97;;;15.70;99.90;;;;;;4989660;28;20199;-88
2022/04/15 08:23:50;;;;;;;3.80;2.60;;;16.60;99.90;;;;;;5013123;28;20238;-88
2022/04/15 08:26:17;;;;;;;3.63;2.80;;;16.30;99.90;;;;;;4986741;28;20292;-87
2022/04/15 08:28:44;;;;;;;4.33;2.87;;;16.40;99.90;;;;;;5010115;28;20309;-86
2022/04/15 08:31:11;;;;;;;5.10;2.73;;;16.30;99.90;;;;;;5001710;28;20246;-88
2022/04/15 08:33:38;;;;;;;5.57;2.90;;;15.80;99.90;;;;;;4994827;28;20206;-86
2022/04/15 08:36:07;;;;;;;8.53;3.03;;;15.40;99.90;;;;;;5009846;28;20221;-87
2022/04/15 08:38:33;;;;;;;5.17;3.10;;;15.20;99.90;;;;;;4998532;28;20238;-89
2022/04/15 08:41:01;;;;;;;4.47;3.03;;;15.10;99.90;;;;;;5003545;28;20244;-87
2022/04/15 08:43:29;;;;;;;4.57;3.10;;;15.30;99.90;;;;;;5010648;28;20317;-87
2022/04/15 08:45:56;;;;;;;5.37;3.07;;;15.30;99.90;;;;;;5011606;28;20654;-87
2022/04/15 08:48:24;;;;;;;6.43;3.40;;;15.00;99.90;;;;;;4990328;28;20245;-87
2022/04/15 08:50:51;;;;;;;6.70;3.27;;;14.70;99.90;;;;;;4995375;28;20705;-88
2022/04/15 08:53:22;;;;;;;5.30;3.17;;;14.60;99.90;;;;;;4993114;28;20202;-87
2022/04/15 08:55:49;;;;;;;6.13;2.90;;;14.50;99.90;;;;;;4996490;28;20213;-88
2022/04/15 08:58:16;;;;;;;6.03;3.50;;;14.40;99.90;;;;;;5006488;28;20219;-88
2022/04/15 09:00:43;;;;;;;6.63;3.83;;;14.30;99.90;;;;;;4995252;28;20227;-88
2022/04/15 09:03:10;;;;;;;6.27;3.90;;;14.80;99.90;;;;;;4984032;28;20218;-88
2022/04/15 09:05:37;;;;;;;4.53;3.50;;;15.10;99.90;;;;;;4994760;28;20627;-88
2022/04/15 09:08:10;;;;;;;4.37;3.40;;;15.20;99.90;;;;;;4993158;28;20280;-86
2022/04/15 09:10:41;;;;;;;5.17;3.40;;;15.30;99.90;;;;;;5000231;28;20217;-87
2022/04/15 09:13:19;;;;;;;5.00;3.20;;;15.50;99.90;;;;;;5000404;28;20214;-87
2022/04/15 09:15:46;;;;;;;6.93;3.30;;;15.60;99.90;;;;;;4999289;28;20719;-87
2022/04/15 09:18:28;;;;;;;5.60;3.27;;;15.60;99.90;;;;;;5017275;28;20222;-87
2022/04/15 09:21:17;;;;;;;6.63;3.43;;;15.30;99.90;;;;;;5016442;28;20210;-88
2022/04/15 09:23:46;;;;;;;3.87;3.37;;;15.10;99.90;;;;;;5004383;28;20265;-87
2022/04/15 09:26:15;;;;;;;6.37;3.90;;;14.80;99.90;;;;;;5009818;28;20674;-86
2022/04/15 09:28:42;;;;;;;4.43;3.23;;;14.60;99.90;;;;;;4996766;28;20288;-87
2022/04/15 09:31:14;;;;;;;7.40;3.60;;;14.50;99.90;;;;;;5011012;28;20190;-88
2022/04/15 09:33:58;;;;;;;6.53;3.73;;;14.10;99.90;;;;;;5026759;28;20492;-87
2022/04/15 09:36:26;;;;;;;4.57;3.37;;;14.40;99.90;;;;;;5022109;28;20219;-86
2022/04/15 09:39:14;;;;;;;5.73;3.30;;;14.20;99.90;;;;;;5016645;28;20266;-86
2022/04/15 09:41:51;;;;;;;5.67;3.80;;;14.20;99.90;;;;;;5014938;28;20201;-87
2022/04/15 09:44:18;;;;;;;6.67;3.70;;;14.10;99.90;;;;;;5015426;28;20194;-88
2022/04/15 09:46:45;;;;;;;4.83;3.23;;;14.30;99.90;;;;;;5015702;28;20244;-87
2022/04/15 09:49:13;;;;;;;5.23;4.03;;;14.50;99.90;;;;;;5032280;28;20239;-88
2022/04/15 09:51:44;;;;;;;7.17;4.67;;;14.70;99.90;;;;;;5005708;28;20202;-87
2022/04/15 09:54:19;;;;;;;7.17;5.00;;;14.60;99.90;;;;;;5000224;28;20221;-87
2022/04/15 09:56:49;;;;;;;9.40;5.60;;;14.70;99.90;;;;;;5014931;28;20276;-87
2022/04/15 09:59:22;;;;;;;7.27;5.60;;;14.60;99.90;;;;;;4996550;28;20222;-87
2022/04/15 10:01:53;;;;;;;8.50;5.10;;;14.40;99.90;;;;;;4995730;28;20220;-87
2022/04/15 10:04:21;;;;;;;5.10;4.00;;;14.40;99.90;;;;;;4988725;28;20280;-87
2022/04/15 10:06:48;;;;;;;4.87;3.80;;;14.20;99.90;;;;;;5015798;28;20225;-86
2022/04/15 10:09:15;;;;;;;7.37;4.70;;;14.00;99.90;;;;;;5002071;28;20234;-87
2022/04/15 10:11:43;;;;;;;7.07;5.03;;;13.90;99.90;;;;;;5001493;28;20217;-87
2022/04/15 10:14:12;;;;;;;5.57;4.90;;;13.90;99.90;;;;;;5009904;28;20225;-89
2022/04/15 10:16:42;;;;;;;6.60;6.00;;;13.90;99.90;;;;;;5005587;28;20201;-85
2022/04/15 10:19:10;;;;;;;10.93;7.43;;;13.80;99.90;;;;;;5000045;28;20240;-85
2022/04/15 10:21:38;;;;;;;11.53;9.10;;;13.50;99.90;;;;;;5012297;28;20216;-85
2022/04/15 10:24:08;;;;;;;10.47;8.63;;;13.70;99.90;;;;;;5009971;28;20735;-86
2022/04/15 10:26:35;;;;;;;10.80;8.80;;;13.80;99.90;;;;;;4991431;28;20236;-86
2022/04/15 10:29:04;;;;;;;13.77;9.63;;;13.90;99.90;;;;;;5008717;28;20796;-88
2022/04/15 10:31:40;;;;;;;11.43;8.53;;;14.00;99.90;;;;;;5003745;28;20244;-86
2022/04/15 10:34:12;;;;;;;9.00;7.70;;;14.30;99.90;;;;;;4996068;28;20241;-86
2022/04/15 10:36:48;;;;;;;9.37;6.80;;;14.60;99.90;;;;;;4991802;28;20213;-86
2022/04/15 10:39:17;;;;;;;7.93;5.50;;;14.90;99.90;;;;;;5022224;28;20234;-86
2022/04/15 10:41:52;;;;;;;6.37;5.37;;;15.20;99.90;;;;;;5001551;28;20611;-86
2022/04/15 10:44:26;;;;;;;7.83;5.27;;;15.30;99.90;;;;;;5003034;28;20661;-86
2022/04/15 10:46:58;;;;;;;6.30;5.00;;;15.40;99.90;;;;;;5002719;28;20222;-86
2022/04/15 10:49:26;;;;;;;5.30;4.10;;;15.40;99.90;;;;;;5033513;28;20246;-87
2022/04/15 10:51:58;;;;;;;6.43;4.77;;;15.30;99.90;;;;;;5016906;28;20198;-87
2022/04/15 10:54:40;;;;;;;6.50;5.90;;;15.50;99.90;;;;;;5005902;28;20206;-87
2022/04/15 10:57:11;;;;;;;8.97;7.70;;;15.50;99.90;;;;;;5015759;28;20198;-87
2022/04/15 11:02:38;;;;;;;10.27;9.10;;;15.50;99.90;;;;;;5014176;28;20214;-86
2022/04/15 11:05:08;;;;;;;11.00;9.30;;;15.30;99.90;;;;;;5009034;28;20240;-87
2022/04/15 11:07:49;;;;;;;8.67;7.10;;;15.00;99.90;;;;;;5005610;28;20217;-87
2022/04/15 11:10:32;;;;;;;8.90;7.17;;;14.80;99.90;;;;;;5024118;28;20237;-87
2022/04/15 11:12:59;;;;;;;10.00;8.10;;;14.70;99.90;;;;;;5020062;28;20258;-88
2022/04/15 11:15:54;;;;;;;11.80;9.40;;;14.60;99.90;;;;;;5008999;28;20619;-86
2022/04/15 11:18:22;;;;;;;12.03;10.70;;;14.70;99.90;;;;;;5006230;28;20756;-87
2022/04/15 11:20:49;;;;;;;12.83;11.33;;;15.20;99.90;;;;;;4999883;28;20206;-87
2022/04/15 11:23:17;;;;;;;13.27;11.87;;;14.80;99.90;;;;;;5002684;28;20218;-87
2022/04/15 11:25:44;;;;;;;12.80;11.50;;;14.90;99.90;;;;;;5001162;28;20218;-86
2022/04/15 11:28:12;;;;;;;12.70;10.03;;;15.00;99.90;;;;;;5014646;28;20264;-87
2022/04/15 11:30:39;;;;;;;11.93;10.43;;;15.00;99.90;;;;;;5016387;28;20204;-87
2022/04/15 11:33:07;;;;;;;11.90;10.70;;;15.00;99.90;;;;;;5000272;28;20209;-87
2022/04/15 11:35:37;;;;;;;13.17;10.63;;;14.90;99.90;;;;;;5008229;28;20699;-88
2022/04/15 11:38:06;;;;;;;11.00;9.47;;;14.90;99.90;;;;;;5012949;28;20222;-87
2022/04/15 11:40:35;;;;;;;12.63;10.47;;;14.80;99.90;;;;;;4999869;28;20210;-87
2022/04/15 11:43:02;;;;;;;13.23;10.77;;;14.70;99.90;;;;;;5003537;28;20346;-86
2022/04/15 11:45:36;;;;;;;14.13;11.57;;;15.20;99.90;;;;;;5014448;28;20211;-87
2022/04/15 11:48:17;;;;;;;13.20;11.80;;;14.40;99.90;;;;;;5004559;28;20247;-87
2022/04/15 11:50:46;;;;;;;13.83;12.50;;;14.30;99.90;;;;;;5009548;28;20217;-86
2022/04/15 11:53:14;;;;;;;14.60;11.50;;;14.30;99.90;;;;;;5008982;28;20385;-86
2022/04/15 11:55:52;;;;;;;14.20;11.40;;;14.30;99.90;;;;;;5012069;28;20205;-86
2022/04/15 11:58:20;;;;;;;;;;;14.30;99.90;;;;;;5005161;28;20221;-85
2022/04/15 12:00:53;;;;;;;;;;;14.30;99.90;;;;;;5027399;28;19925;-86
2022/04/15 12:03:21;;;;;;;;;;;14.40;99.90;;;;;;5020167;28;20020;-87
2022/04/15 12:05:49;;;;;;;;;;;14.50;99.90;;;;;;4998544;28;19940;-87
2022/04/15 12:08:16;;;;;;;;;;;14.40;99.90;;;;;;4994906;28;19932;-86
2022/04/15 12:10:44;;;;;;;;;;;14.40;99.90;;;;;;4992369;28;19925;-86
2022/04/15 12:13:11;;;;;;;;;;;14.50;99.90;;;;;;5000639;28;19925;-86
2022/04/15 12:15:38;;;;;;;;;;;14.70;99.90;;;;;;5003958;28;19921;-87
2022/04/15 12:18:06;;;;;;;;;;;14.70;99.90;;;;;;4994218;28;19961;-86
2022/04/15 12:20:33;;;;;;;;;;;14.80;99.90;;;;;;5003667;28;19931;-85
2022/04/15 12:23:01;;;;;;;;;;;14.90;99.90;;;;;;5009810;28;19985;-86
2022/04/15 12:26:05;;;;;;;;;;;15.10;99.90;;;;;;5001959;28;19932;-86
2022/04/15 12:30:57;;;;;;;;;;;15.70;99.90;;;;;;4997605;28;19921;-86
2022/04/15 12:33:24;;;;;;;;;;;15.90;99.90;;;;;;5005450;28;19921;-86
2022/04/15 12:35:57;;;;;;;;;;;15.90;99.90;;;;;;5001868;28;19995;-87
2022/04/15 12:38:25;;;;;;;;;;;15.70;99.90;;;;;;5012740;28;19921;-87
2022/04/15 12:40:52;;;;;;;;;;;15.50;99.90;;;;;;5012562;28;20585;-88
2022/04/15 12:43:19;;;;;;;;;;;15.50;99.90;;;;;;5015560;28;19925;-87
2022/04/15 12:45:50;;;;;;;;;;;15.50;99.90;;;;;;5010663;28;19921;-87
2022/04/15 12:48:16;;;;;;;;;;;15.70;99.90;;;;;;5005310;28;19941;-87
2022/04/15 12:50:46;;;;;;;;;;;15.90;99.90;;;;;;5017764;28;19936;-88
2022/04/15 12:53:17;;;;;;;;;;;16.00;99.90;;;;;;5003427;28;20290;-90
2022/04/15 12:55:46;;;;;;;;;;;16.30;99.90;;;;;;5010841;28;20028;-88
2022/04/15 12:58:20;;;;;;;;;;;16.60;99.90;;;;;;5012114;28;19937;-88
2022/04/15 13:00:50;;;;;;;;;;;16.60;99.90;;;;;;5021156;28;19925;-85